LFSL 210400Z AUTO 33006KT CAVOK 00/M02 Q1030 NOSIG

ElémentsDécodage
LFSL Station météo située sur l'aérodrome de TOUL Rosières
210400Z émis le 21 du mois à 04h00 UTC
AUTO Bulletin édité par un automate
33006KT vent du 330°, 06 noeuds
CAVOK Ceiling And Visibility OK
- Visibilité de 10 Km ou plus
- Pas de nuage au-dessous de 1500m ou au-dessous de l'altitude minimale du secteur la plus élevée (si>1500m) et absence de CB
- pas de temps présent significatif
00/M02 température 00°C, point de rosée -02°C
 soit une humidité relative de 86%
Q1030 la pression au niveau de la mer (QNH) est de 1030 hPa
NOSIG Pas de changement significatif prévu au cours des deux heures suivant l'heure de l'observation